createdAt,value
2019-03-18T00:01:01.233Z,48.12
2019-03-18T00:03:32.024Z,47.58
2019-03-18T00:06:02.752Z,48.02
2019-03-18T00:08:33.106Z,47.76
2019-03-18T00:11:03.487Z,46.57
2019-03-18T00:13:34.133Z,46.86
2019-03-18T00:16:04.859Z,46.71
2019-03-18T00:18:35.482Z,47.64
2019-03-18T00:21:06.099Z,48.44
2019-03-18T00:23:36.546Z,48.73
2019-03-18T00:26:07.021Z,48.63
2019-03-18T00:28:37.710Z,48.51
2019-03-18T00:31:08.225Z,48.39
2019-03-18T00:33:38.823Z,48.43
2019-03-18T00:36:09.536Z,48.91
2019-03-18T00:38:40.160Z,48.98
2019-03-18T00:41:10.888Z,49.59
2019-03-18T00:43:41.348Z,49.49
2019-03-18T00:46:14.272Z,49.29
2019-03-18T00:48:44.850Z,49.37
2019-03-18T00:51:15.608Z,49.02
2019-03-18T00:53:46.275Z,49.82
2019-03-18T00:56:16.971Z,50.37
2019-03-18T00:58:48.987Z,50.80
2019-03-18T01:01:19.681Z,51.17
2019-03-18T01:03:52.379Z,51.53
2019-03-18T01:06:22.740Z,51.24
2019-03-18T01:08:53.317Z,49.82
2019-03-18T01:11:23.849Z,50.42
2019-03-18T01:13:54.230Z,51.19
2019-03-18T01:16:24.826Z,51.95
2019-03-18T01:18:55.216Z,52.34
2019-03-18T01:21:26.046Z,51.28
2019-03-18T01:23:56.760Z,51.79
2019-03-18T01:26:27.228Z,51.67
2019-03-18T01:28:57.630Z,51.09
2019-03-18T01:31:28.337Z,50.48
2019-03-18T01:33:58.892Z,50.61
2019-03-18T01:36:29.373Z,49.66
2019-03-18T01:38:59.903Z,49.78
2019-03-18T01:41:30.344Z,49.81
2019-03-18T01:44:00.922Z,49.83
2019-03-18T01:46:31.677Z,50.03
2019-03-18T01:49:02.105Z,49.97
2019-03-18T01:51:32.569Z,49.20
2019-03-18T01:54:03.253Z,48.99
2019-03-18T01:56:33.711Z,49.36
2019-03-18T01:59:04.140Z,49.93
2019-03-18T02:01:34.665Z,50.08
2019-03-18T02:04:05.626Z,50.44
2019-03-18T02:06:36.004Z,50.69
2019-03-18T02:09:07.588Z,50.77
2019-03-18T02:11:37.992Z,50.82
2019-03-18T02:14:08.338Z,50.32
2019-03-18T02:16:39.095Z,50.77
2019-03-18T02:19:11.916Z,51.14
2019-03-18T02:21:42.434Z,51.26
2019-03-18T02:24:12.912Z,51.60
2019-03-18T02:26:43.729Z,52.24
2019-03-18T02:29:14.367Z,52.33
2019-03-18T02:31:44.678Z,52.31
2019-03-18T02:34:15.533Z,51.84
2019-03-18T02:36:46.100Z,52.03
2019-03-18T02:39:16.787Z,52.56
2019-03-18T02:41:47.499Z,53.24
2019-03-18T02:44:17.979Z,53.78
2019-03-18T02:46:48.572Z,54.19
2019-03-18T02:49:19.125Z,54.27
2019-03-18T02:51:52.760Z,54.59
2019-03-18T02:54:21.850Z,54.76
2019-03-18T02:56:52.218Z,54.86
2019-03-18T02:59:22.781Z,54.99
2019-03-18T03:01:53.620Z,54.94
2019-03-18T03:04:24.202Z,54.99
2019-03-18T03:06:54.783Z,55.33
2019-03-18T03:09:25.241Z,55.16
2019-03-18T03:11:56.005Z,54.73
2019-03-18T03:14:26.505Z,55.22
2019-03-18T03:16:57.227Z,55.12
2019-03-18T03:19:27.908Z,55.25
2019-03-18T03:21:58.465Z,55.21
2019-03-18T03:24:28.934Z,54.97
2019-03-18T03:26:59.508Z,54.67
2019-03-18T03:29:29.954Z,54.08
2019-03-18T03:32:00.536Z,53.81
2019-03-18T03:34:31.035Z,54.11
2019-03-18T03:37:01.833Z,54.43
2019-03-18T03:39:32.341Z,54.64
2019-03-18T03:42:02.985Z,54.69
2019-03-18T03:44:33.747Z,54.60
2019-03-18T03:47:04.518Z,54.78
2019-03-18T03:49:35.120Z,54.95
2019-03-18T03:52:05.870Z,55.06
2019-03-18T03:54:36.341Z,54.80
2019-03-18T03:57:10.106Z,54.67
2019-03-18T03:59:40.975Z,55.08
2019-03-18T04:02:11.552Z,55.61
2019-03-18T04:04:41.818Z,55.83
2019-03-18T04:07:12.305Z,55.84
2019-03-18T04:09:42.753Z,56.21
2019-03-18T04:12:13.446Z,56.09
2019-03-18T04:14:43.937Z,56.02
2019-03-18T04:17:14.461Z,55.84
2019-03-18T04:19:45.034Z,55.59
2019-03-18T04:22:15.465Z,55.11
2019-03-18T04:24:46.345Z,54.74
2019-03-18T04:27:16.865Z,54.22
2019-03-18T04:29:47.441Z,54.55
2019-03-18T04:32:18.084Z,54.78
2019-03-18T04:34:48.342Z,55.29
2019-03-18T04:37:18.748Z,55.61
2019-03-18T04:39:49.355Z,55.81
2019-03-18T04:42:20.022Z,55.52
2019-03-18T04:44:50.576Z,55.49
2019-03-18T04:47:21.164Z,56.07
2019-03-18T04:49:51.845Z,55.95
2019-03-18T04:52:25.425Z,56.01
2019-03-18T04:54:55.917Z,55.62
2019-03-18T04:57:26.384Z,55.99
2019-03-18T04:59:57.108Z,56.00
2019-03-18T05:02:27.749Z,56.16
2019-03-18T05:04:58.190Z,56.21
2019-03-18T05:07:28.690Z,56.06
2019-03-18T05:09:59.528Z,55.83
2019-03-18T05:12:30.245Z,56.33
2019-03-18T05:15:00.742Z,56.64
2019-03-18T05:17:31.263Z,56.94
2019-03-18T05:20:01.669Z,56.93
2019-03-18T05:22:32.278Z,57.13
2019-03-18T05:25:03.023Z,56.66
2019-03-18T05:27:33.744Z,56.35
2019-03-18T05:30:04.020Z,56.00
2019-03-18T05:32:34.304Z,55.69
2019-03-18T05:35:04.988Z,55.88
2019-03-18T05:37:35.753Z,55.64
2019-03-18T05:40:06.687Z,55.89
2019-03-18T05:42:37.255Z,55.87
2019-03-18T05:45:08.186Z,55.36
2019-03-18T05:47:39.911Z,54.69
2019-03-18T05:50:10.803Z,55.55
2019-03-18T05:52:41.239Z,55.13
2019-03-18T05:55:11.979Z,54.69
2019-03-18T05:57:42.557Z,53.94
2019-03-18T06:00:13.365Z,53.80
2019-03-18T06:02:46.835Z,53.72
2019-03-18T06:05:16.267Z,53.54
2019-03-18T06:07:46.773Z,52.89
2019-03-18T06:10:17.557Z,52.59
2019-03-18T06:12:48.085Z,52.09
2019-03-18T06:15:18.774Z,51.73
2019-03-18T06:17:53.082Z,51.98
2019-03-18T06:20:23.834Z,51.67
2019-03-18T06:22:54.604Z,51.62
2019-03-18T06:25:25.016Z,50.90
2019-03-18T06:27:55.463Z,50.65
2019-03-18T06:30:26.249Z,50.62
2019-03-18T06:32:56.917Z,50.33
2019-03-18T06:35:27.259Z,50.36
2019-03-18T06:37:57.719Z,50.28
2019-03-18T06:40:28.315Z,50.25
2019-03-18T06:42:58.609Z,50.17
2019-03-18T06:45:29.397Z,49.95
2019-03-18T06:48:04.921Z,50.14
2019-03-18T06:50:32.152Z,50.33
2019-03-18T06:53:02.938Z,50.03
2019-03-18T06:55:33.670Z,49.96
2019-03-18T06:58:04.395Z,49.70
2019-03-18T07:00:34.798Z,49.52
2019-03-18T07:03:05.247Z,49.39
2019-03-18T07:05:35.927Z,49.02
2019-03-18T07:08:06.437Z,48.58
2019-03-18T07:10:37.022Z,48.44
2019-03-18T07:13:07.522Z,48.22
2019-03-18T07:15:38.034Z,48.15
2019-03-18T07:21:05.131Z,46.83
2019-03-18T07:23:35.254Z,44.21
2019-03-18T07:26:05.948Z,39.76
2019-03-18T07:28:37.440Z,36.65
2019-03-18T07:31:08.050Z,33.42
2019-03-18T07:33:38.457Z,30.13
2019-03-18T07:36:08.912Z,27.70
2019-03-18T07:38:42.614Z,27.15
2019-03-18T07:41:13.046Z,25.84
2019-03-18T07:43:43.600Z,24.57
2019-03-18T07:46:13.998Z,23.91
2019-03-18T07:48:44.816Z,23.83
2019-03-18T07:51:14.997Z,24.04
2019-03-18T07:53:45.504Z,24.18
2019-03-18T07:56:16.193Z,23.83
2019-03-18T07:58:46.702Z,23.03
2019-03-18T08:01:17.454Z,21.57
2019-03-18T08:03:48.006Z,20.32
2019-03-18T08:06:18.613Z,19.93
2019-03-18T08:08:49.251Z,18.66
2019-03-18T08:11:20.032Z,18.03
2019-03-18T08:13:50.481Z,17.75
2019-03-18T08:16:21.006Z,16.41
2019-03-18T08:18:51.513Z,15.81
2019-03-18T08:21:26.257Z,15.37
2019-03-18T08:23:56.895Z,15.01
2019-03-18T08:37:14.588Z,14.86
2019-03-18T08:40:16.170Z,14.56
2019-03-18T08:47:13.631Z,13.99
2019-03-18T08:49:46.415Z,13.73
2019-03-18T08:52:18.619Z,13.32
2019-03-18T08:55:17.188Z,13.72
2019-03-18T08:57:47.499Z,14.18
2019-03-18T09:00:18.178Z,13.50
2019-03-18T09:02:49.577Z,13.17
2019-03-18T09:06:02.072Z,13.10
2019-03-18T09:08:48.976Z,12.69
2019-03-18T09:11:18.951Z,12.47
2019-03-18T09:13:49.309Z,13.34
2019-03-18T09:16:19.928Z,12.41
2019-03-18T09:18:50.225Z,13.23
2019-03-18T09:21:58.418Z,12.50
2019-03-18T09:27:36.408Z,11.61
2019-03-18T09:30:15.646Z,11.12
2019-03-18T09:32:46.246Z,12.32
2019-03-18T09:38:44.823Z,12.34
2019-03-18T09:41:15.093Z,12.31
2019-03-18T09:43:45.523Z,12.66
2019-03-18T09:46:16.196Z,12.91
2019-03-18T09:48:46.783Z,13.58
2019-03-18T09:52:04.340Z,15.06
2019-03-18T09:54:35.101Z,14.37
2019-03-18T09:58:00.199Z,12.79
2019-03-18T10:00:32.352Z,13.93
2019-03-18T10:03:02.929Z,13.44
2019-03-18T10:05:35.731Z,12.28
2019-03-18T10:08:06.215Z,11.53
2019-03-18T10:10:36.844Z,10.92
2019-03-18T10:16:35.350Z,10.12
2019-03-18T10:19:07.232Z,11.74
2019-03-18T10:21:37.374Z,11.23
2019-03-18T10:24:07.520Z,10.82
2019-03-18T10:26:37.985Z,11.46
2019-03-18T10:29:08.431Z,11.14
2019-03-18T10:31:38.472Z,10.33
2019-03-18T10:34:08.826Z,10.23
2019-03-18T10:36:39.344Z,10.21
2019-03-18T10:39:09.443Z,10.02
2019-03-18T10:41:39.939Z,10.03
2019-03-18T10:44:10.619Z,10.20
2019-03-18T10:46:40.698Z,9.77
2019-03-18T10:49:10.967Z,9.19
2019-03-18T10:51:41.338Z,9.83
2019-03-18T10:54:11.875Z,10.73
2019-03-18T10:56:42.520Z,10.24
2019-03-18T10:59:13.014Z,11.19
2019-03-18T11:01:43.461Z,11.25
2019-03-18T11:04:13.870Z,10.13
2019-03-18T11:06:44.528Z,9.38
2019-03-18T11:09:15.003Z,9.11
2019-03-18T11:11:45.488Z,9.54
2019-03-18T11:14:15.903Z,9.67
2019-03-18T11:16:46.481Z,9.88
2019-03-18T11:19:17.147Z,10.14
2019-03-18T11:21:47.953Z,10.46
2019-03-18T11:24:18.607Z,10.63
2019-03-18T11:26:49.120Z,10.96
2019-03-18T11:29:19.678Z,11.28
2019-03-18T11:31:50.339Z,10.83
2019-03-18T11:34:20.764Z,11.49
2019-03-18T11:36:51.258Z,11.48
2019-03-18T11:39:21.707Z,11.81
2019-03-18T11:41:52.198Z,11.62
2019-03-18T11:44:22.567Z,12.08
2019-03-18T11:46:53.009Z,13.29
2019-03-18T11:49:23.590Z,12.07
2019-03-18T11:51:54.202Z,12.09
2019-03-18T11:54:24.828Z,11.90
2019-03-18T11:56:55.567Z,11.38
2019-03-18T11:59:25.986Z,11.64
2019-03-18T12:01:56.450Z,12.82
2019-03-18T12:04:27.059Z,13.29
2019-03-18T12:06:57.626Z,13.31
2019-03-18T12:09:28.099Z,12.21
2019-03-18T12:11:58.617Z,12.86
2019-03-18T12:14:29.100Z,12.41
2019-03-18T12:16:59.477Z,12.61
2019-03-18T12:19:29.965Z,12.71
2019-03-18T12:22:00.576Z,13.18
2019-03-18T12:24:30.927Z,13.34
2019-03-18T12:27:01.158Z,12.97
2019-03-18T12:29:31.683Z,12.90
2019-03-18T12:32:01.988Z,13.14
2019-03-18T12:34:32.417Z,12.96
2019-03-18T12:37:02.807Z,13.03
2019-03-18T12:39:33.456Z,12.63
2019-03-18T12:42:03.927Z,13.06
2019-03-18T12:44:34.519Z,13.79
2019-03-18T12:47:05.384Z,13.09
2019-03-18T12:49:36.081Z,12.67
2019-03-18T12:52:06.797Z,12.88
2019-03-18T12:54:37.325Z,13.37
2019-03-18T12:57:08.001Z,13.80
2019-03-18T12:59:38.692Z,14.58
2019-03-18T13:02:09.303Z,14.31
2019-03-18T13:04:40.029Z,14.19
2019-03-18T13:07:10.716Z,14.32
2019-03-18T13:09:41.206Z,14.23
2019-03-18T13:12:13.223Z,14.83
2019-03-18T13:14:43.972Z,15.19
2019-03-18T13:17:14.742Z,15.02
2019-03-18T13:19:45.539Z,15.91
2019-03-18T13:22:16.089Z,16.18
2019-03-18T13:24:46.689Z,16.01
2019-03-18T13:27:17.246Z,15.41
2019-03-18T13:29:47.629Z,15.69
2019-03-18T13:32:18.118Z,17.03
2019-03-18T13:34:48.458Z,17.69
2019-03-18T13:37:18.935Z,17.93
2019-03-18T13:39:49.485Z,18.43
2019-03-18T13:42:20.010Z,19.00
2019-03-18T13:44:50.660Z,20.52
2019-03-18T13:47:20.985Z,23.01
2019-03-18T13:49:51.687Z,23.78
2019-03-18T13:52:22.264Z,23.78
2019-03-18T13:54:52.652Z,24.33
2019-03-18T13:57:23.128Z,25.24
2019-03-18T13:59:53.766Z,25.74
2019-03-18T14:02:24.405Z,25.68
2019-03-18T14:04:55.167Z,26.20
2019-03-18T14:07:25.933Z,27.20
2019-03-18T14:09:56.642Z,27.47
2019-03-18T14:12:27.244Z,27.52
2019-03-18T14:14:57.793Z,27.60
2019-03-18T14:17:28.480Z,27.68
2019-03-18T14:20:00.687Z,28.13
2019-03-18T14:22:31.210Z,27.79
2019-03-18T14:25:01.699Z,27.90
2019-03-18T14:27:32.317Z,27.75
2019-03-18T14:30:03.079Z,28.51
2019-03-18T14:32:33.543Z,28.53
2019-03-18T14:35:04.171Z,29.01
2019-03-18T14:37:34.957Z,29.31
2019-03-18T14:40:06.138Z,28.63
2019-03-18T14:42:36.494Z,29.16
2019-03-18T14:45:07.509Z,29.04
2019-03-18T14:47:38.133Z,29.12
2019-03-18T14:50:09.291Z,29.38
2019-03-18T14:52:39.721Z,29.73
2019-03-18T14:55:10.456Z,29.61
2019-03-18T14:57:41.289Z,29.94
2019-03-18T15:00:16.031Z,29.77
2019-03-18T15:02:46.407Z,30.03
2019-03-18T15:05:17.242Z,30.26
2019-03-18T15:07:47.754Z,30.10
2019-03-18T15:10:18.311Z,30.68
2019-03-18T15:12:48.743Z,30.62
2019-03-18T15:15:19.590Z,30.57
2019-03-18T15:17:49.899Z,30.55
2019-03-18T15:20:20.413Z,30.92
2019-03-18T15:22:50.917Z,30.95
2019-03-18T15:25:22.425Z,31.18
2019-03-18T15:27:52.967Z,31.05
2019-03-18T15:30:23.506Z,31.42
2019-03-18T15:32:53.918Z,31.40
2019-03-18T15:35:24.354Z,31.56
2019-03-18T15:37:54.902Z,31.46
2019-03-18T15:40:25.466Z,31.80
2019-03-18T15:42:56.224Z,31.59
2019-03-18T15:45:26.664Z,31.51
2019-03-18T15:47:56.912Z,31.81
2019-03-18T15:50:27.685Z,32.04
2019-03-18T15:52:58.370Z,32.32
2019-03-18T15:55:28.924Z,32.43
2019-03-18T15:57:59.562Z,32.97
2019-03-18T16:00:30.245Z,32.85
2019-03-18T16:03:00.769Z,33.08
2019-03-18T16:05:31.383Z,32.83
2019-03-18T16:08:02.090Z,32.88
2019-03-18T16:10:32.798Z,34.28
2019-03-18T16:13:03.347Z,34.36
2019-03-18T16:15:33.825Z,34.32
2019-03-18T16:18:04.374Z,34.33
2019-03-18T16:20:34.911Z,33.88
2019-03-18T16:23:05.434Z,34.22
2019-03-18T16:25:35.888Z,34.02
2019-03-18T16:28:06.379Z,34.65
2019-03-18T16:30:36.959Z,34.44
2019-03-18T16:33:07.384Z,34.39
2019-03-18T16:35:38.292Z,33.75
2019-03-18T16:38:08.807Z,34.81
2019-03-18T16:40:39.321Z,36.00
2019-03-18T16:43:09.967Z,35.96
2019-03-18T16:45:40.548Z,35.18
2019-03-18T16:48:11.058Z,35.01
2019-03-18T16:50:42.317Z,35.20
2019-03-18T16:53:12.831Z,35.26
2019-03-18T16:55:43.285Z,35.29
2019-03-18T16:58:13.697Z,35.34
2019-03-18T17:00:44.254Z,36.06
2019-03-18T17:03:14.627Z,36.64
2019-03-18T17:05:45.122Z,36.91
2019-03-18T17:08:15.523Z,37.07
2019-03-18T17:10:46.204Z,37.69
2019-03-18T17:13:16.627Z,38.62
2019-03-18T17:15:47.245Z,39.45
2019-03-18T17:18:18.155Z,40.52
2019-03-18T17:20:49.323Z,41.42
2019-03-18T17:23:20.244Z,41.89
2019-03-18T17:25:50.842Z,42.18
2019-03-18T17:28:21.572Z,42.33
2019-03-18T17:30:52.198Z,42.28
2019-03-18T17:33:24.877Z,42.25
2019-03-18T17:35:55.700Z,42.12
2019-03-18T17:38:26.107Z,41.88
2019-03-18T17:40:56.725Z,41.79
2019-03-18T17:43:27.418Z,41.68
2019-03-18T17:45:58.047Z,41.58
2019-03-18T17:48:28.613Z,41.55
2019-03-18T17:50:59.076Z,41.41
2019-03-18T17:53:29.764Z,41.40
2019-03-18T17:56:02.627Z,41.50
2019-03-18T17:58:33.309Z,41.26
2019-03-18T18:01:03.970Z,41.20
2019-03-18T18:03:34.352Z,41.04
2019-03-18T18:06:05.161Z,40.74
2019-03-18T18:08:35.739Z,40.35
2019-03-18T18:11:06.125Z,40.93
2019-03-18T18:13:36.485Z,41.57
2019-03-18T18:16:07.237Z,41.89
2019-03-18T18:18:40.527Z,42.34
2019-03-18T18:21:10.830Z,42.78
2019-03-18T18:23:41.920Z,42.74
2019-03-18T18:26:12.526Z,42.65
2019-03-18T18:28:43.033Z,42.59
2019-03-18T18:31:13.492Z,42.21
2019-03-18T18:33:43.922Z,42.80
2019-03-18T18:36:14.708Z,42.69
2019-03-18T18:38:45.347Z,43.25
2019-03-18T18:41:16.018Z,43.37
2019-03-18T18:43:47.293Z,43.85
2019-03-18T18:46:18.431Z,44.34
2019-03-18T18:48:49.158Z,44.73
2019-03-18T18:51:19.669Z,45.10
2019-03-18T18:53:50.189Z,45.47
2019-03-18T18:56:21.056Z,45.34
2019-03-18T18:58:51.950Z,44.21
2019-03-18T19:01:24.200Z,45.02
2019-03-18T19:03:55.059Z,45.86
2019-03-18T19:06:25.610Z,46.55
2019-03-18T19:08:56.282Z,46.81
2019-03-18T19:11:26.950Z,46.78
2019-03-18T19:13:57.371Z,46.92
2019-03-18T19:16:28.021Z,46.73
2019-03-18T19:18:58.868Z,47.01
2019-03-18T19:21:29.549Z,46.09
2019-03-18T19:24:00.211Z,46.42
2019-03-18T19:26:30.955Z,47.18
2019-03-18T19:29:01.766Z,47.61
2019-03-18T19:31:32.579Z,47.95
2019-03-18T19:34:02.980Z,48.25
2019-03-18T19:36:33.668Z,47.71
2019-03-18T19:39:07.383Z,47.74
2019-03-18T19:41:40.137Z,47.82
2019-03-18T19:44:10.086Z,48.74
2019-03-18T19:46:41.153Z,49.27
2019-03-18T19:49:11.767Z,49.67
2019-03-18T19:51:42.298Z,49.72
2019-03-18T19:54:13.118Z,49.91
2019-03-18T19:56:44.257Z,49.22
2019-03-18T19:59:15.772Z,48.86
2019-03-18T20:01:46.372Z,48.90
2019-03-18T20:04:16.945Z,48.65
2019-03-18T20:06:47.510Z,49.28
2019-03-18T20:09:18.514Z,49.75
2019-03-18T20:11:49.865Z,49.69
2019-03-18T20:14:20.662Z,50.15
2019-03-18T20:16:51.241Z,49.48
2019-03-18T20:19:21.827Z,49.89
2019-03-18T20:21:52.597Z,50.46
2019-03-18T20:24:23.134Z,50.18
2019-03-18T20:26:53.816Z,50.35
2019-03-18T20:29:24.636Z,49.58
2019-03-18T20:31:55.534Z,50.03
2019-03-18T20:34:28.101Z,50.55
2019-03-18T20:36:58.535Z,50.93
2019-03-18T20:39:29.178Z,51.65
2019-03-18T20:42:00.031Z,50.87
2019-03-18T20:44:30.924Z,51.13
2019-03-18T20:47:01.477Z,51.13
2019-03-18T20:49:35.062Z,50.27
2019-03-18T20:52:16.255Z,51.10
2019-03-18T20:54:38.409Z,51.35
2019-03-18T20:57:09.191Z,51.25
2019-03-18T20:59:42.476Z,51.44
2019-03-18T21:02:13.021Z,51.60
2019-03-18T21:04:43.819Z,51.45
2019-03-18T21:07:16.950Z,51.83
2019-03-18T21:09:46.950Z,52.82
2019-03-18T21:12:20.034Z,53.38
2019-03-18T21:14:50.502Z,53.15
2019-03-18T21:17:21.368Z,53.55
2019-03-18T21:19:52.107Z,53.88
2019-03-18T21:22:24.218Z,54.29
2019-03-18T21:24:54.765Z,54.15
2019-03-18T21:27:25.550Z,54.26
2019-03-18T21:29:56.309Z,54.33
2019-03-18T21:32:28.385Z,54.44
2019-03-18T21:34:58.988Z,54.42
2019-03-18T21:37:29.772Z,54.10
2019-03-18T21:40:00.464Z,54.55
2019-03-18T21:42:31.496Z,54.31
2019-03-18T21:45:02.011Z,54.44
2019-03-18T21:47:34.357Z,54.41
2019-03-18T21:50:05.001Z,54.41
2019-03-18T21:52:35.763Z,54.27
2019-03-18T21:55:06.729Z,54.53
2019-03-18T21:57:37.486Z,54.18
2019-03-18T22:00:11.064Z,54.65
2019-03-18T22:02:42.081Z,54.93
2019-03-18T22:05:16.703Z,54.73
2019-03-18T22:07:47.492Z,54.07
2019-03-18T22:10:18.380Z,54.31
2019-03-18T22:12:49.219Z,54.67
2019-03-18T22:15:20.069Z,54.95
2019-03-18T22:17:50.929Z,55.15
2019-03-18T22:20:23.357Z,55.35
2019-03-18T22:22:53.767Z,55.30
2019-03-18T22:25:24.528Z,55.02
2019-03-18T22:27:58.223Z,55.30
2019-03-18T22:30:29.098Z,55.37
2019-03-18T22:32:59.700Z,55.44
2019-03-18T22:35:30.488Z,55.64
2019-03-18T22:38:01.525Z,55.73
2019-03-18T22:40:32.252Z,55.93
2019-03-18T22:43:02.844Z,56.02
2019-03-18T22:45:33.497Z,55.89
2019-03-18T22:48:04.338Z,55.19
2019-03-18T22:50:34.806Z,54.74
2019-03-18T22:53:05.445Z,55.48
2019-03-18T22:55:36.252Z,54.41
2019-03-18T22:58:07.111Z,55.07
2019-03-18T23:00:47.108Z,55.07
2019-03-18T23:03:18.029Z,55.55
2019-03-18T23:05:50.176Z,55.85
2019-03-18T23:08:20.763Z,56.15
2019-03-18T23:10:53.518Z,56.26
2019-03-18T23:13:24.350Z,56.49
2019-03-18T23:15:55.146Z,56.31
2019-03-18T23:18:25.826Z,56.53
2019-03-18T23:20:56.614Z,56.27
2019-03-18T23:23:27.958Z,56.28
2019-03-18T23:25:58.684Z,56.53
2019-03-18T23:28:29.212Z,56.47
2019-03-18T23:30:59.675Z,56.12
2019-03-18T23:33:30.308Z,56.31
2019-03-18T23:36:03.770Z,56.28
2019-03-18T23:38:34.455Z,59.54
2019-03-18T23:41:05.013Z,60.74
2019-03-18T23:43:36.999Z,61.11
2019-03-18T23:46:07.538Z,61.65
2019-03-18T23:48:39.162Z,61.91
2019-03-18T23:51:10.106Z,60.74
2019-03-18T23:53:40.622Z,61.23
2019-03-18T23:56:11.407Z,62.60
2019-03-18T23:58:41.914Z,63.25
